East Dennis, MA

4:55 PM EDT on September 17, 2014 (GMT -0400)
Cape Cod Coast Guard Air Station | Change Station
CLOSE
Current Station
Airport
Location: Cape Cod CGAS,
Elevation: 131 ft
Nearby Weather Stations

Elev 131 ft 41.66 °N, 70.52 °W | Updated 20 minutes ago

Clear
Clear
70 °F
Feels Like 70 °F
N
8
Wind Variable Wind from West

Today
High -- | Low -- °F
--% Chance of Precip.
Yesterday
High -- | Low -- °F
Precip. -- in
6:22 AM 6:46 PM
Waning Crescent, 33% visible
Pressure 29.94 in
Visibility 10.0 miles
Clouds Clear
Dew Point 46 °F
Humidity 43%
Rainfall 0.00 in
Snow Depth Not available.
UV 2 out of 12
Pollen 3.40 out of 12
Air Quality Not available.
Flu Activity Not available.
METAR KFMH 172035Z AUTO 27007KT 10SM CLR 21/08 A2994 RMK AO2

More Conditions Fewer Conditions

Pressure 29.94 in
Visibility 10.0 miles
Clouds Clear
Dew Point 46 °F
Humidity 43%
Rainfall 0.00 in
Snow Depth Not available.
UV 2 out of 12
Pollen 3.40 out of 12
Air Quality Not available.
Flu Activity Not available.
METAR KFMH 172035Z AUTO 27007KT 10SM CLR 21/08 A2994 RMK AO2

More Conditions Fewer Conditions

10-Day Weather Forecast

Almanac

Astronomy

Sep. 17, 2014 Rise Set
Actual Time 6:22 AM EDT 6:46 PM EDT
Civil Twilight 5:54 AM EDT 7:14 PM EDT
Nautical Twilight 5:22 AM EDT 7:47 PM EDT
Astronomical Twilight 4:48 AM EDT 8:20 PM EDT
Moon 12:16 AM EDT 2:57 PM EDT
Length of Visible Light 13h 19m
Length of Day
12h 23m
Tomorrow will be 2m 46s shorter.
Waning Crescent, 33% of the Moon is Illuminated
Today
Waning Crescent
Sep 24
New
Oct 1
First Quarter
Oct 8
Full
Oct 15
Last Quarter

Today's Extremes

State Highs State Lows

Community

WunderPhotos

Upload Photos

1,754,161 photos uploaded!

WunderBlogs® & News

Nearby

Air Quality

  Air Quality AQ Index Pollutant
Yesterday Good
OZONE
Wednesday Good
PM2.5
Wednesday Good
OZONE
Thursday Good
PM2.5
Thursday Good
OZONE

Snow Depth

Station Depth Elevation
No new snow has been reported.

Earthquake Activity

City Distance Mag. Time & Date
No recent earthquake activity has been reported nearby.
Minimum magnitude displayed is 2.5.

Coastal Water Temperatures

Place Temperature
Woods Hole, MA 70.0 °F
Nantucket Island, MA 70.0 °F
Boston, MA 63.0 °F
Fall River, MA 71.1 °F

Nearby Weather Stations